createdAt,value
2022-11-02T00:01:24.714Z,1.02
2022-11-02T00:06:26.708Z,1.23
2022-11-02T00:11:28.531Z,0.82
2022-11-02T00:16:31.567Z,1.00
2022-11-02T00:21:35.033Z,0.75
2022-11-02T00:26:38.574Z,0.80
2022-11-02T00:31:40.582Z,1.17
2022-11-02T00:36:42.708Z,0.90
2022-11-02T00:41:44.802Z,0.80
2022-11-02T00:46:46.753Z,0.65
2022-11-02T00:51:48.946Z,0.90
2022-11-02T00:56:51.753Z,0.90
2022-11-02T01:01:53.926Z,0.93
2022-11-02T01:06:55.821Z,1.08
2022-11-02T01:11:57.781Z,0.50
2022-11-02T01:16:59.694Z,0.75
2022-11-02T01:22:01.644Z,0.90
2022-11-02T01:27:03.636Z,0.80
2022-11-02T01:32:05.935Z,0.80
2022-11-02T01:37:07.814Z,1.05
2022-11-02T01:42:36.219Z,0.88
2022-11-02T01:47:41.097Z,1.05
2022-11-02T01:52:43.332Z,0.80
2022-11-02T01:57:49.375Z,0.80
2022-11-02T02:02:58.029Z,0.70
2022-11-02T02:08:03.505Z,0.55
2022-11-02T02:13:07.804Z,0.95
2022-11-02T02:18:22.007Z,0.80
2022-11-02T02:23:32.582Z,0.55
2022-11-02T02:28:40.436Z,0.70
2022-11-02T02:38:57.064Z,0.63
2022-11-02T02:44:01.215Z,0.70
2022-11-02T02:49:06.590Z,0.63
2022-11-02T02:54:14.061Z,0.80
2022-11-02T02:59:26.071Z,0.60
2022-11-02T03:04:29.933Z,0.90
2022-11-02T03:09:31.785Z,0.55
2022-11-02T03:14:47.003Z,0.75
2022-11-02T03:20:03.390Z,0.85
2022-11-02T03:25:19.807Z,0.60
2022-11-02T03:30:29.062Z,0.55
2022-11-02T03:35:55.794Z,0.75
2022-11-02T03:41:01.477Z,0.70
2022-11-02T03:46:08.807Z,0.88
2022-11-02T03:51:14.884Z,0.60
2022-11-02T03:56:33.893Z,0.70
2022-11-02T04:01:54.064Z,1.60
2022-11-02T04:06:58.244Z,0.82
2022-11-02T04:12:20.210Z,0.75
2022-11-02T04:17:41.200Z,0.40
2022-11-02T04:23:05.939Z,0.50
2022-11-02T04:28:09.616Z,0.65
2022-11-02T04:33:35.811Z,0.73
2022-11-02T04:38:44.344Z,0.50
2022-11-02T04:44:07.355Z,0.57
2022-11-02T04:49:11.320Z,0.60
2022-11-02T04:54:14.219Z,0.90
2022-11-02T04:59:16.612Z,0.88
2022-11-02T05:04:18.619Z,0.73
2022-11-02T05:09:22.990Z,1.17
2022-11-02T05:14:25.526Z,1.35
2022-11-02T05:19:27.956Z,0.73
2022-11-02T05:24:29.947Z,1.45
2022-11-02T05:29:32.671Z,1.10
2022-11-02T05:34:34.695Z,1.05
2022-11-02T05:39:37.544Z,1.33
2022-11-02T05:44:39.557Z,0.82
2022-11-02T05:49:41.650Z,0.80
2022-11-02T05:54:43.833Z,0.85
2022-11-02T05:59:48.392Z,1.70
2022-11-02T06:04:51.399Z,0.68
2022-11-02T06:09:53.356Z,1.05
2022-11-02T06:14:55.244Z,0.90
2022-11-02T06:19:56.993Z,0.60
2022-11-02T06:24:58.804Z,0.80
2022-11-02T06:30:01.053Z,0.90
2022-11-02T06:35:02.922Z,0.85
2022-11-02T06:40:06.062Z,0.82
2022-11-02T06:45:08.752Z,0.98
2022-11-02T06:50:11.092Z,0.60
2022-11-02T06:55:15.548Z,1.70
2022-11-02T07:00:21.005Z,1.17
2022-11-02T07:05:26.633Z,1.33
2022-11-02T07:10:29.361Z,0.70
2022-11-02T07:15:32.081Z,0.73
2022-11-02T07:20:35.349Z,1.10
2022-11-02T07:25:37.703Z,0.95
2022-11-02T07:30:39.713Z,0.90
2022-11-02T07:35:43.071Z,0.95
2022-11-02T07:40:49.532Z,1.10
2022-11-02T07:45:51.399Z,0.77
2022-11-02T07:50:53.483Z,0.93
2022-11-02T07:55:55.539Z,0.75
2022-11-02T08:01:00.038Z,1.27
2022-11-02T08:06:05.069Z,0.95
2022-11-02T08:11:08.773Z,0.90
2022-11-02T08:16:10.735Z,1.17
2022-11-02T08:21:12.822Z,0.93
2022-11-02T08:26:14.919Z,1.00
2022-11-02T08:31:17.823Z,0.75
2022-11-02T08:36:19.809Z,1.23
2022-11-02T08:41:21.794Z,1.10
2022-11-02T08:46:23.693Z,0.88
2022-11-02T08:51:25.659Z,1.13
2022-11-02T08:56:27.722Z,1.10
2022-11-02T09:01:29.624Z,1.10
2022-11-02T09:06:31.800Z,0.70
2022-11-02T09:11:33.781Z,0.90
2022-11-02T09:16:41.037Z,1.40
2022-11-02T09:21:44.093Z,0.80
2022-11-02T09:26:46.146Z,0.90
2022-11-02T09:31:49.070Z,1.50
2022-11-02T09:36:50.932Z,1.35
2022-11-02T09:42:07.891Z,0.98
2022-11-02T09:52:38.569Z,0.82
2022-11-02T09:57:45.766Z,0.75
2022-11-02T10:03:01.971Z,0.52
2022-11-02T10:08:22.182Z,1.02
2022-11-02T10:13:33.026Z,0.88
2022-11-02T10:18:37.064Z,0.80
2022-11-02T10:23:42.436Z,0.65
2022-11-02T10:28:48.770Z,0.63
2022-11-02T10:33:52.928Z,0.98
2022-11-02T10:39:33.364Z,1.27
2022-11-02T10:44:41.026Z,0.80
2022-11-02T10:49:45.753Z,0.85
2022-11-02T10:54:51.665Z,0.82
2022-11-02T11:00:24.113Z,0.63
2022-11-02T11:05:26.107Z,1.05
2022-11-02T11:10:29.117Z,1.45
2022-11-02T11:15:50.167Z,0.98
2022-11-02T11:20:56.391Z,2.38
2022-11-02T11:26:07.142Z,0.82
2022-11-02T11:31:10.856Z,0.70
2022-11-02T11:36:33.438Z,1.20
2022-11-02T11:41:41.699Z,0.88
2022-11-02T11:46:50.351Z,0.98
2022-11-02T11:51:55.619Z,0.43
2022-11-02T11:57:16.643Z,0.88
2022-11-02T12:02:34.886Z,1.10
2022-11-02T12:08:10.079Z,1.15
2022-11-02T12:13:17.834Z,0.70
2022-11-02T12:18:36.836Z,0.68
2022-11-02T12:24:00.494Z,0.70
2022-11-02T12:29:20.402Z,0.88
2022-11-02T12:34:31.613Z,1.02
2022-11-02T12:40:15.555Z,1.00
2022-11-02T12:45:34.814Z,1.02
2022-11-02T12:51:07.186Z,0.65
2022-11-02T12:56:16.856Z,0.95
2022-11-02T13:01:24.600Z,0.88
2022-11-02T13:06:35.167Z,0.80
2022-11-02T13:11:48.895Z,0.98
2022-11-02T13:17:22.556Z,1.52
2022-11-02T13:22:33.023Z,0.60
2022-11-02T13:27:39.281Z,0.85
2022-11-02T13:33:05.122Z,1.52
2022-11-02T13:38:13.381Z,0.82
2022-11-02T13:43:57.279Z,0.70
2022-11-02T13:49:06.006Z,0.60
2022-11-02T13:54:14.589Z,0.80
2022-11-02T13:59:28.718Z,0.70
2022-11-02T14:04:39.385Z,0.70
2022-11-02T14:09:44.746Z,0.57
2022-11-02T14:15:06.812Z,0.55
2022-11-02T14:20:38.270Z,1.08
2022-11-02T14:25:46.020Z,0.73
2022-11-02T14:36:39.114Z,1.00
2022-11-02T14:41:49.836Z,0.90
2022-11-02T14:46:53.569Z,0.75
2022-11-02T14:52:21.024Z,0.90
2022-11-02T14:57:36.202Z,0.67
2022-11-02T15:02:43.109Z,0.43
2022-11-02T15:07:53.618Z,1.00
2022-11-02T15:13:18.820Z,1.27
2022-11-02T15:18:23.002Z,0.80
2022-11-02T15:23:31.717Z,0.63
2022-11-02T15:28:34.991Z,0.80
2022-11-02T15:33:46.397Z,0.75
2022-11-02T15:38:51.408Z,0.73
2022-11-02T15:44:27.639Z,0.60
2022-11-02T15:49:41.748Z,0.52
2022-11-02T15:54:51.713Z,0.93
2022-11-02T16:00:07.311Z,1.05
2022-11-02T16:05:20.947Z,1.08
2022-11-02T16:10:34.721Z,1.05
2022-11-02T16:15:36.761Z,1.40
2022-11-02T16:20:40.306Z,0.63
2022-11-02T16:25:49.216Z,1.17
2022-11-02T16:31:10.944Z,0.82
2022-11-02T16:36:24.169Z,0.93
2022-11-02T16:46:36.054Z,0.75
2022-11-02T16:51:38.383Z,1.08
2022-11-02T16:56:40.247Z,1.70
2022-11-02T17:01:43.798Z,1.52
2022-11-02T17:06:48.027Z,1.35
2022-11-02T17:11:51.097Z,1.40
2022-11-02T17:17:25.229Z,1.45
2022-11-02T17:22:29.195Z,0.93
2022-11-02T17:27:37.693Z,1.20
2022-11-02T17:32:43.424Z,1.90
2022-11-02T17:37:45.782Z,1.83
2022-11-02T17:42:59.759Z,1.88
2022-11-02T17:48:02.465Z,1.90
2022-11-02T17:53:06.152Z,2.80
2022-11-02T17:58:08.473Z,5.10
2022-11-02T18:03:15.887Z,2.67
2022-11-02T18:08:18.328Z,4.23
2022-11-02T18:13:22.896Z,4.47
2022-11-02T18:18:24.803Z,3.03
2022-11-02T18:23:26.650Z,2.10
2022-11-02T18:28:28.564Z,3.10
2022-11-02T18:33:30.398Z,3.28
2022-11-02T18:38:32.435Z,1.60
2022-11-02T18:43:34.315Z,2.30
2022-11-02T18:48:36.125Z,2.30
2022-11-02T18:53:38.399Z,2.08
2022-11-02T18:58:40.561Z,2.00
2022-11-02T19:03:42.638Z,3.33
2022-11-02T19:09:02.972Z,1.77
2022-11-02T19:14:05.212Z,1.10
2022-11-02T19:19:06.987Z,1.45
2022-11-02T19:24:09.213Z,1.80
2022-11-02T19:29:10.943Z,1.38
2022-11-02T19:34:13.602Z,1.63
2022-11-02T19:39:15.352Z,1.38
2022-11-02T19:44:17.250Z,1.40
2022-11-02T19:49:19.042Z,2.15
2022-11-02T19:54:20.924Z,1.67
2022-11-02T19:59:22.745Z,1.42
2022-11-02T20:04:24.583Z,1.65
2022-11-02T20:09:26.693Z,1.08
2022-11-02T20:14:28.574Z,1.73
2022-11-02T20:19:30.431Z,1.50
2022-11-02T20:24:32.581Z,1.17
2022-11-02T20:29:34.487Z,1.40
2022-11-02T20:34:36.895Z,1.60
2022-11-02T20:39:38.706Z,1.30
2022-11-02T20:44:40.677Z,0.95
2022-11-02T20:49:50.634Z,1.35
2022-11-02T20:54:53.012Z,2.25
2022-11-02T20:59:56.107Z,1.50
2022-11-02T21:04:58.189Z,1.25
2022-11-02T21:10:00.186Z,1.17
2022-11-02T21:15:02.488Z,1.30
2022-11-02T21:25:26.587Z,1.50
2022-11-02T21:30:31.148Z,1.00
2022-11-02T21:35:33.085Z,1.33
2022-11-02T21:40:34.991Z,1.10
2022-11-02T21:45:38.192Z,1.05
2022-11-02T21:50:40.207Z,0.90
2022-11-02T21:55:42.032Z,2.15
2022-11-02T22:01:02.496Z,1.45
2022-11-02T22:06:04.587Z,1.02
2022-11-02T22:11:11.823Z,1.20
2022-11-02T22:16:21.949Z,1.00
2022-11-02T22:21:25.877Z,1.80
2022-11-02T22:26:30.146Z,1.73
2022-11-02T22:31:34.442Z,1.58
2022-11-02T22:36:38.757Z,1.70
2022-11-02T22:41:43.156Z,1.13
2022-11-02T22:46:47.821Z,1.50
2022-11-02T22:51:50.726Z,1.38
2022-11-02T22:56:52.513Z,1.02
2022-11-02T23:01:54.773Z,1.23
2022-11-02T23:06:56.617Z,1.58
2022-11-02T23:11:58.383Z,1.20
2022-11-02T23:17:00.165Z,1.00
2022-11-02T23:22:26.103Z,0.73
2022-11-02T23:27:28.666Z,1.13
2022-11-02T23:32:30.997Z,1.00
2022-11-02T23:37:32.927Z,1.40
2022-11-02T23:42:34.692Z,0.90
2022-11-02T23:47:55.265Z,1.23
2022-11-02T23:53:15.534Z,1.30
2022-11-02T23:58:17.527Z,0.98
